Time;durP1;ratioP1;P1;durP2;ratioP2;P2;SDS_P1;SDS_P2;PMS_P1;PMS_P2;Temp;Humidity;BMP_temperature;BMP_pressure;BME280_temperature;BME280_humidity;BME280_pressure;Samples;Min_cycle;Max_cycle;Signal;HPM_P1;HPM_P2
2021/07/18 00:01:48;;;;;;;13.20;11.90;;;;;;;23.32;76.50;100184.83;1775231;80;20923;-72
2021/07/18 00:04:14;;;;;;;21.05;12.43;;;;;;;23.32;76.57;100186.16;1775668;80;20955;-71
2021/07/18 00:06:41;;;;;;;14.73;13.22;;;;;;;23.28;76.62;100184.88;1775283;80;21139;-72
2021/07/18 00:09:10;;;;;;;16.77;12.68;;;;;;;23.24;76.64;100178.23;1775226;80;20966;-72
2021/07/18 00:11:39;;;;;;;13.88;12.40;;;;;;;23.22;76.62;100178.09;1775235;80;20971;-74
2021/07/18 00:14:06;;;;;;;14.07;12.58;;;;;;;23.20;76.79;100184.14;1775274;80;20959;-75
2021/07/18 00:16:34;;;;;;;13.08;11.73;;;;;;;23.14;76.80;100187.03;1775332;80;20837;-76
2021/07/18 00:19:05;;;;;;;15.43;11.53;;;;;;;23.09;77.00;100176.88;1775225;80;21543;-76
2021/07/18 00:21:32;;;;;;;15.65;12.18;;;;;;;23.08;77.06;100181.11;1774057;80;20904;-76
2021/07/18 00:23:59;;;;;;;18.05;11.80;;;;;;;23.07;77.06;100175.41;1775271;80;20905;-75
2021/07/18 00:26:26;;;;;;;15.85;12.30;;;;;;;23.03;77.08;100177.61;1775272;80;20929;-75
2021/07/18 00:28:53;;;;;;;16.10;12.03;;;;;;;23.01;77.13;100185.02;1775194;80;20943;-75
2021/07/18 00:31:20;;;;;;;14.70;11.65;;;;;;;22.96;77.22;100170.80;1775208;80;21147;-76
2021/07/18 00:33:46;;;;;;;16.62;11.60;;;;;;;22.95;77.38;100173.69;1775151;80;20947;-78
2021/07/18 00:36:15;;;;;;;13.58;12.25;;;;;;;22.94;77.40;100171.52;1775198;80;21429;-77
2021/07/18 00:38:42;;;;;;;15.58;11.43;;;;;;;22.93;77.41;100175.70;1775239;80;20990;-77
2021/07/18 00:41:09;;;;;;;17.85;12.82;;;;;;;22.92;77.45;100175.37;1775386;80;20865;-77
2021/07/18 00:43:36;;;;;;;14.70;11.63;;;;;;;22.91;77.47;100173.20;1775249;80;21174;-75
2021/07/18 00:46:04;;;;;;;13.95;11.73;;;;;;;22.90;77.46;100175.58;1775379;80;20853;-75
2021/07/18 00:48:31;;;;;;;12.78;11.40;;;;;;;22.89;77.38;100171.73;1776088;80;20928;-75
2021/07/18 00:50:58;;;;;;;16.25;12.03;;;;;;;22.85;77.44;100177.13;1776824;80;20912;-76
2021/07/18 00:53:26;;;;;;;13.95;12.50;;;;;;;22.83;77.51;100179.14;1776094;80;20913;-75
2021/07/18 00:55:55;;;;;;;18.42;12.43;;;;;;;22.83;77.41;100176.47;1775368;80;20980;-74
2021/07/18 00:58:24;;;;;;;14.13;11.65;;;;;;;22.83;77.37;100184.49;1775163;80;20853;-73
2021/07/18 01:00:51;;;;;;;18.77;13.00;;;;;;;22.81;77.20;100180.69;1775202;80;20932;-73
2021/07/18 01:03:19;;;;;;;25.40;15.85;;;;;;;22.81;77.20;100181.17;1775266;80;20913;-74
2021/07/18 01:05:46;;;;;;;16.80;15.20;;;;;;;22.79;77.18;100177.36;1775325;80;20979;-75
2021/07/18 01:08:12;;;;;;;21.05;16.37;;;;;;;22.77;77.45;100178.05;1775233;80;21136;-75
2021/07/18 01:10:41;;;;;;;19.70;15.03;;;;;;;22.75;77.60;100184.91;1775093;80;20884;-74
2021/07/18 01:13:08;;;;;;;17.73;15.93;;;;;;;22.74;77.68;100182.41;1775488;80;21078;-74
2021/07/18 01:15:35;;;;;;;18.57;16.52;;;;;;;22.70;77.84;100172.60;1775328;80;21007;-76
2021/07/18 01:18:02;;;;;;;19.57;16.60;;;;;;;22.68;77.91;100168.45;1775315;80;20877;-74
2021/07/18 01:20:29;;;;;;;17.15;14.23;;;;;;;22.66;77.95;100167.80;1775261;80;21563;-74
2021/07/18 01:22:56;;;;;;;20.20;14.45;;;;;;;22.65;77.98;100171.47;1775170;80;20971;-75
2021/07/18 01:25:22;;;;;;;14.87;12.35;;;;;;;22.62;77.89;100170.51;1775265;80;20933;-74
2021/07/18 01:27:50;;;;;;;16.73;12.78;;;;;;;22.61;77.98;100172.84;1775113;80;20980;-74
2021/07/18 01:30:17;;;;;;;15.00;13.43;;;;;;;22.60;78.08;100176.54;1753387;80;20936;-75
2021/07/18 01:32:44;;;;;;;18.30;12.60;;;;;;;22.59;78.10;100170.85;1775607;80;21113;-75
2021/07/18 01:35:11;;;;;;;19.57;13.75;;;;;;;22.56;78.04;100176.88;1775102;80;20880;-74
2021/07/18 01:37:38;;;;;;;13.62;11.65;;;;;;;22.54;78.08;100179.41;1775499;80;20925;-72
2021/07/18 01:40:08;;;;;;;17.10;12.55;;;;;;;22.51;77.94;100181.95;1775198;80;20971;-73
2021/07/18 01:42:36;;;;;;;17.80;13.22;;;;;;;22.48;78.03;100178.31;1775106;80;21454;-74
2021/07/18 01:45:05;;;;;;;15.28;12.23;;;;;;;22.47;78.10;100177.97;1775371;80;21122;-76
2021/07/18 01:47:31;;;;;;;16.57;12.50;;;;;;;22.48;78.24;100180.16;1775394;80;21419;-74
2021/07/18 01:49:58;;;;;;;14.35;12.23;;;;;;;22.47;78.30;100179.83;1775250;80;20864;-74
2021/07/18 01:52:25;;;;;;;18.73;12.13;;;;;;;22.44;78.21;100190.88;1775620;80;20988;-78
2021/07/18 01:54:55;;;;;;;16.02;11.70;;;;;;;22.39;78.28;100190.57;1775191;80;20837;-72
2021/07/18 01:57:22;;;;;;;20.23;12.13;;;;;;;22.36;78.46;100186.42;1775474;80;21520;-73
2021/07/18 01:59:49;;;;;;;14.90;12.90;;;;;;;22.37;78.72;100185.42;1775011;80;21445;-72
2021/07/18 02:02:16;;;;;;;17.45;12.58;;;;;;;22.38;78.94;100187.08;1775212;80;20987;-71
2021/07/18 02:04:45;;;;;;;17.48;12.85;;;;;;;22.39;78.95;100186.56;1775097;80;20932;-71
2021/07/18 02:07:11;;;;;;;19.27;15.70;;;;;;;22.38;78.75;100191.08;1775138;80;20928;-72
2021/07/18 02:09:38;;;;;;;20.60;12.98;;;;;;;22.36;79.01;100193.09;1775177;80;22131;-72
2021/07/18 02:14:34;;;;;;;15.98;11.78;;;;;;;22.45;78.89;100189.86;1883951;75;22191;-72
2021/07/18 02:17:00;;;;;;;14.63;12.25;;;;;;;22.42;78.93;100202.25;1860651;77;20859;-74
2021/07/18 02:19:29;;;;;;;15.03;12.65;;;;;;;22.40;78.92;100197.08;1860823;77;21110;-72
2021/07/18 02:21:57;;;;;;;18.42;13.08;;;;;;;22.40;78.86;100194.41;1861198;77;21506;-72
2021/07/18 02:24:23;;;;;;;13.55;11.93;;;;;;;22.42;78.74;100202.25;1860640;77;20906;-73
2021/07/18 02:26:52;;;;;;;19.20;12.93;;;;;;;22.42;78.52;100196.39;1860718;77;20872;-72
2021/07/18 02:29:19;;;;;;;15.25;12.20;;;;;;;22.41;78.64;100197.42;1860712;77;20907;-73
2021/07/18 02:31:47;;;;;;;13.40;12.00;;;;;;;22.42;78.56;100195.58;1860627;77;21145;-71
2021/07/18 02:34:14;;;;;;;18.85;12.82;;;;;;;22.42;78.65;100198.25;1860679;77;20915;-73
2021/07/18 02:36:41;;;;;;;15.48;12.03;;;;;;;22.42;78.86;100194.23;1860776;77;21440;-73
2021/07/18 02:39:10;;;;;;;13.32;11.53;;;;;;;22.45;78.96;100196.54;1860581;77;20910;-72
2021/07/18 02:41:38;;;;;;;13.03;11.35;;;;;;;22.49;78.89;100200.00;1860814;76;20967;-73
2021/07/18 02:44:06;;;;;;;13.62;12.33;;;;;;;22.51;78.66;100204.66;1860636;76;21164;-74
2021/07/18 02:46:35;;;;;;;14.38;12.90;;;;;;;22.50;78.63;100197.67;1860686;77;20901;-73
2021/07/18 02:49:03;;;;;;;16.67;12.30;;;;;;;22.51;78.77;100195.31;1860759;77;20859;-73
2021/07/18 02:51:31;;;;;;;13.15;11.80;;;;;;;22.54;79.00;100192.30;1860570;77;20915;-73
2021/07/18 02:53:58;;;;;;;15.25;12.90;;;;;;;22.61;79.05;100188.88;1860603;77;20966;-73
2021/07/18 02:56:25;;;;;;;16.52;12.55;;;;;;;22.68;78.81;100193.34;1860715;77;21109;-74
2021/07/18 02:58:52;;;;;;;17.77;13.28;;;;;;;22.75;78.51;100196.94;1860578;77;21330;-72
2021/07/18 03:01:18;;;;;;;22.17;13.58;;;;;;;22.82;78.29;100196.22;1860587;77;20966;-71
2021/07/18 03:03:45;;;;;;;25.48;12.93;;;;;;;22.87;78.00;100194.64;1860563;77;20911;-72
2021/07/18 03:06:12;;;;;;;20.97;12.60;;;;;;;22.92;77.73;100198.95;1860719;76;21373;-73
2021/07/18 03:08:41;;;;;;;19.50;13.50;;;;;;;22.95;77.64;100195.90;1860690;76;20951;-73
2021/07/18 03:11:08;;;;;;;15.78;13.62;;;;;;;23.02;77.54;100194.69;1860721;76;21016;-74
2021/07/18 03:13:35;;;;;;;22.62;15.13;;;;;;;23.07;77.35;100200.83;1848541;75;21281;-74
2021/07/18 03:16:04;;;;;;;18.82;14.73;;;;;;;23.08;77.21;100197.16;1835460;77;21472;-73
2021/07/18 03:18:31;;;;;;;16.90;14.05;;;;;;;23.12;77.19;100201.09;1835492;76;20855;-75
2021/07/18 03:20:58;;;;;;;16.65;14.40;;;;;;;23.16;77.26;100203.73;1835443;76;21113;-74
2021/07/18 03:23:25;;;;;;;22.32;15.03;;;;;;;23.17;77.17;100192.85;1835433;77;21309;-73
2021/07/18 03:25:52;;;;;;;16.12;14.58;;;;;;;23.25;76.95;100192.43;1834845;77;20855;-73
2021/07/18 03:28:19;;;;;;;17.25;15.55;;;;;;;23.30;76.79;100192.69;1834740;78;20935;-74
2021/07/18 03:30:47;;;;;;;16.30;14.50;;;;;;;23.33;76.80;100189.66;1834817;77;20873;-74
2021/07/18 03:33:14;;;;;;;17.27;14.58;;;;;;;23.40;76.61;100187.90;1834936;77;21511;-73
2021/07/18 03:35:41;;;;;;;18.15;13.83;;;;;;;23.47;76.45;100190.66;1834635;76;20894;-74
2021/07/18 03:38:08;;;;;;;19.75;14.47;;;;;;;23.57;76.22;100188.53;1834840;76;20847;-73
2021/07/18 03:40:36;;;;;;;17.67;15.75;;;;;;;23.65;76.03;100190.25;1806875;78;20953;-73
2021/07/18 03:43:03;;;;;;;19.37;15.18;;;;;;;23.72;75.80;100195.17;1834714;76;20867;-74
2021/07/18 03:45:30;;;;;;;22.32;16.20;;;;;;;23.77;75.61;100193.63;1834865;76;21106;-72
2021/07/18 03:47:57;;;;;;;15.93;14.23;;;;;;;23.84;75.53;100195.05;1834673;77;20879;-73
2021/07/18 03:50:24;;;;;;;16.57;14.83;;;;;;;23.91;75.37;100197.80;1834762;77;20871;-72
2021/07/18 03:52:51;;;;;;;19.23;17.40;;;;;;;23.93;75.31;100193.91;1834862;77;20886;-72
2021/07/18 03:55:18;;;;;;;17.42;15.75;;;;;;;23.96;74.99;100192.17;1834854;76;20922;-72
2021/07/18 03:57:45;;;;;;;17.12;15.30;;;;;;;24.00;74.84;100196.13;1834942;76;21516;-73
2021/07/18 04:00:15;;;;;;;21.15;15.18;;;;;;;24.05;74.58;100200.09;1834386;77;20887;-74
2021/07/18 04:02:42;;;;;;;17.80;15.08;;;;;;;24.08;74.51;100194.34;1834847;77;20855;-73
2021/07/18 04:05:10;;;;;;;19.67;15.60;;;;;;;24.11;74.47;100193.47;1834615;77;21340;-72
2021/07/18 04:07:37;;;;;;;17.57;14.90;;;;;;;24.15;74.39;100197.95;1835050;76;20922;-72
2021/07/18 04:10:05;;;;;;;20.60;14.45;;;;;;;24.16;74.52;100191.03;1834869;77;21986;-72
2021/07/18 04:12:34;;;;;;;16.05;14.55;;;;;;;24.23;74.43;100193.78;1834670;77;20888;-73
2021/07/18 04:15:02;;;;;;;18.60;14.68;;;;;;;24.30;73.99;100197.38;1847425;77;21425;-72
2021/07/18 04:17:29;;;;;;;15.03;13.50;;;;;;;24.35;73.94;100204.31;1849143;77;20953;-72
2021/07/18 04:19:56;;;;;;;16.35;14.73;;;;;;;24.43;73.69;100202.52;1849481;76;20952;-72
2021/07/18 04:22:23;;;;;;;22.25;14.10;;;;;;;24.52;73.45;100198.22;1849281;77;21700;-72
2021/07/18 04:24:50;;;;;;;14.55;13.10;;;;;;;24.71;73.30;100197.22;1849574;77;20858;-71
2021/07/18 04:27:18;;;;;;;15.13;13.58;;;;;;;25.00;72.68;100201.02;1849268;77;21418;-73
2021/07/18 04:29:45;;;;;;;15.32;13.83;;;;;;;25.36;71.54;100203.21;1849670;77;20960;-74
2021/07/18 04:32:12;;;;;;;19.35;14.30;;;;;;;25.76;70.41;100196.66;1849417;77;20834;-73
2021/07/18 04:34:43;;;;;;;19.60;14.70;;;;;;;26.20;69.04;100201.54;1849141;76;22397;-73
2021/07/18 04:37:10;;;;;;;15.85;13.95;;;;;;;26.69;67.62;100186.59;1849191;77;21398;-74
2021/07/18 04:39:40;;;;;;;14.87;13.48;;;;;;;27.16;65.86;100190.84;1849752;77;20944;-72
2021/07/18 04:42:07;;;;;;;15.28;12.90;;;;;;;27.61;64.34;100196.28;1850796;77;20941;-76
2021/07/18 04:44:35;;;;;;;17.05;13.13;;;;;;;28.01;62.78;100193.93;1849719;77;20889;-76
2021/07/18 04:47:04;;;;;;;15.15;13.55;;;;;;;28.39;61.52;100189.84;1849364;76;22391;-76
2021/07/18 04:49:31;;;;;;;15.35;13.80;;;;;;;28.76;60.22;100189.13;1849194;77;20962;-74
2021/07/18 04:51:58;;;;;;;15.53;14.03;;;;;;;29.08;59.20;100185.30;1849204;77;20881;-75
2021/07/18 04:54:26;;;;;;;14.55;13.22;;;;;;;29.41;58.33;100181.89;1849053;77;20975;-76
2021/07/18 04:56:53;;;;;;;14.40;13.10;;;;;;;29.71;57.68;100189.53;1849198;77;20830;-75
2021/07/18 04:59:20;;;;;;;14.80;13.43;;;;;;;30.04;56.70;100188.24;1849161;77;21119;-75
2021/07/18 05:01:47;;;;;;;13.40;12.13;;;;;;;30.34;55.50;100187.38;1849224;77;21366;-74
2021/07/18 05:04:14;;;;;;;13.45;12.28;;;;;;;30.58;54.49;100185.53;1849445;77;20894;-75
2021/07/18 05:06:42;;;;;;;13.35;12.13;;;;;;;30.83;53.61;100182.57;1849209;77;21372;-77
2021/07/18 05:09:09;;;;;;;13.90;12.60;;;;;;;31.09;53.12;100183.99;1849659;76;20886;-75
2021/07/18 05:11:36;;;;;;;12.65;11.35;;;;;;;31.35;52.39;100188.06;1849220;76;21142;-75
2021/07/18 05:14:03;;;;;;;12.98;11.68;;;;;;;31.61;51.57;100189.94;1844430;77;20855;-77
2021/07/18 05:16:30;;;;;;;12.07;10.82;;;;;;;31.84;51.03;100187.67;1834883;78;20831;-77
2021/07/18 05:18:57;;;;;;;18.50;13.03;;;;;;;32.09;50.46;100185.97;1834893;77;21376;-77
2021/07/18 05:21:24;;;;;;;12.73;11.53;;;;;;;32.31;49.99;100187.42;1835159;77;20871;-77
2021/07/18 05:23:51;;;;;;;14.53;11.03;;;;;;;32.47;49.61;100179.53;1834628;76;21132;-77
2021/07/18 05:26:18;;;;;;;14.07;11.15;;;;;;;32.65;49.32;100180.64;1835011;77;21404;-78
2021/07/18 05:28:45;;;;;;;17.17;11.22;;;;;;;32.88;48.92;100176.07;1834879;77;20958;-76
2021/07/18 05:31:12;;;;;;;15.03;11.48;;;;;;;33.15;48.42;100178.89;1834975;76;20879;-76
2021/07/18 05:33:39;;;;;;;12.78;10.48;;;;;;;33.40;48.13;100180.58;1834871;77;21392;-76
2021/07/18 05:36:11;;;;;;;11.85;10.65;;;;;;;33.58;47.47;100184.89;1835083;77;21096;-76
2021/07/18 05:38:38;;;;;;;13.00;10.28;;;;;;;33.71;46.73;100180.95;1834868;77;20903;-77
2021/07/18 05:41:05;;;;;;;14.87;10.80;;;;;;;33.79;46.99;100176.94;1835230;77;20918;-76
2021/07/18 05:43:32;;;;;;;12.05;10.15;;;;;;;33.94;46.13;100180.34;1834693;76;21058;-77
2021/07/18 05:45:59;;;;;;;11.28;10.28;;;;;;;34.08;45.68;100173.94;1835087;77;21479;-77
2021/07/18 05:48:26;;;;;;;15.40;9.83;;;;;;;34.28;44.83;100179.57;1834832;77;21480;-77
2021/07/18 05:50:54;;;;;;;11.93;10.65;;;;;;;34.51;44.53;100179.76;1834706;77;20882;-78
2021/07/18 05:53:23;;;;;;;15.40;9.60;;;;;;;34.76;43.75;100176.95;1834636;77;20867;-75
2021/07/18 05:55:51;;;;;;;11.73;10.50;;;;;;;34.98;43.33;100180.34;1834639;77;20847;-74
2021/07/18 05:58:17;;;;;;;12.28;10.00;;;;;;;35.23;42.93;100181.02;1834900;76;20907;-74
2021/07/18 06:00:44;;;;;;;14.70;10.32;;;;;;;35.46;42.48;100181.62;1835202;77;21767;-77
2021/07/18 06:03:11;;;;;;;17.65;10.82;;;;;;;35.67;41.93;100182.55;1834755;77;20860;-74
2021/07/18 06:05:39;;;;;;;12.73;11.05;;;;;;;35.90;41.70;100181.20;1835082;77;20950;-73
2021/07/18 06:08:08;;;;;;;11.05;9.65;;;;;;;36.02;40.70;100185.87;1834611;76;20962;-73
2021/07/18 06:10:35;;;;;;;11.05;9.73;;;;;;;36.09;41.04;100174.69;1834964;76;20856;-74
2021/07/18 06:13:05;;;;;;;11.30;10.13;;;;;;;36.22;41.14;100177.42;1834585;77;21093;-75
2021/07/18 06:15:33;;;;;;;13.90;10.55;;;;;;;36.32;41.58;100170.59;1834589;76;20902;-75
2021/07/18 06:18:00;;;;;;;17.27;10.72;;;;;;;36.33;40.36;100170.88;1834838;76;20910;-75
2021/07/18 06:20:27;;;;;;;11.50;10.03;;;;;;;36.20;40.50;100178.27;1834719;76;20887;-75
2021/07/18 06:22:54;;;;;;;11.50;9.20;;;;;;;36.06;40.61;100174.69;1834982;77;20859;-76
2021/07/18 06:25:21;;;;;;;15.40;8.95;;;;;;;36.12;40.71;100175.52;1835053;78;21108;-76
2021/07/18 06:27:48;;;;;;;15.80;10.58;;;;;;;36.32;40.55;100170.59;1834509;77;20911;-74
2021/07/18 06:30:17;;;;;;;10.85;9.63;;;;;;;36.55;40.77;100174.65;1835053;77;20875;-74
2021/07/18 06:32:47;;;;;;;13.40;9.78;;;;;;;36.77;40.01;100173.55;1835222;77;20907;-75
2021/07/18 06:35:15;;;;;;;14.98;9.95;;;;;;;37.03;39.53;100169.63;1834808;76;20832;-75
2021/07/18 06:37:44;;;;;;;10.28;9.30;;;;;;;37.26;38.80;100174.22;1835012;76;21087;-73
2021/07/18 06:40:11;;;;;;;15.80;11.75;;;;;;;37.48;38.51;100173.83;1834880;77;20879;-73
2021/07/18 06:42:40;;;;;;;11.57;9.78;;;;;;;37.63;38.20;100172.39;1834676;77;20875;-74
2021/07/18 06:45:13;;;;;;;14.75;9.85;;;;;;;37.73;38.09;100170.13;1834225;77;20919;-74
2021/07/18 06:47:40;;;;;;;13.77;10.23;;;;;;;37.88;38.06;100171.95;1835253;78;20930;-74
2021/07/18 06:50:08;;;;;;;11.80;10.65;;;;;;;38.03;37.55;100166.39;1834565;77;21616;-74
2021/07/18 06:52:36;;;;;;;11.65;9.80;;;;;;;38.15;37.34;100169.59;1834663;77;20942;-74
2021/07/18 06:55:04;;;;;;;12.35;10.30;;;;;;;38.23;37.31;100169.50;1834855;77;20855;-74
2021/07/18 06:57:31;;;;;;;10.25;9.35;;;;;;;38.31;36.73;100166.68;1834733;76;21412;-76
2021/07/18 07:00:01;;;;;;;10.32;9.25;;;;;;;38.38;36.52;100163.07;1834871;77;20926;-75
2021/07/18 07:02:30;;;;;;;10.73;9.53;;;;;;;38.48;36.79;100165.72;1835061;76;21137;-76
2021/07/18 07:05:00;;;;;;;13.25;10.13;;;;;;;38.60;36.44;100155.75;1834498;77;20918;-74
2021/07/18 07:07:28;;;;;;;16.52;10.30;;;;;;;38.72;36.12;100164.94;1834992;77;20985;-76
2021/07/18 07:09:56;;;;;;;11.63;9.58;;;;;;;38.80;35.97;100166.20;1834294;76;20974;-76
2021/07/18 07:12:25;;;;;;;14.60;9.38;;;;;;;38.88;35.69;100162.83;1806998;78;20926;-72
2021/07/18 07:14:52;;;;;;;13.62;9.95;;;;;;;38.96;35.30;100163.03;1841377;77;21106;-75
2021/07/18 07:17:19;;;;;;;26.82;8.73;;;;;;;39.03;35.18;100162.67;1848989;77;20925;-76
2021/07/18 07:19:48;;;;;;;15.63;9.05;;;;;;;39.15;34.93;100162.24;1848999;77;20948;-76
2021/07/18 07:22:18;;;;;;;12.23;9.45;;;;;;;39.22;34.98;100165.47;1849322;76;20861;-77
2021/07/18 07:24:45;;;;;;;10.48;9.38;;;;;;;39.29;34.67;100159.61;1849527;77;21083;-78
2021/07/18 07:27:12;;;;;;;14.90;9.68;;;;;;;39.37;34.61;100160.30;1849180;76;21301;-78
2021/07/18 07:29:39;;;;;;;14.25;9.15;;;;;;;39.49;34.49;100157.14;1849447;77;20925;-79
2021/07/18 07:32:09;;;;;;;12.35;8.95;;;;;;;39.54;34.85;100165.31;1849293;77;21003;-76
2021/07/18 07:34:36;;;;;;;13.70;9.00;;;;;;;39.62;34.26;100166.00;1824084;77;20961;-77
2021/07/18 07:37:06;;;;;;;11.05;9.13;;;;;;;39.74;34.00;100165.56;1848949;77;20900;-78
2021/07/18 07:39:40;;;;;;;10.98;8.35;;;;;;;39.85;33.80;100159.39;1849287;77;21986;-76
2021/07/18 07:42:09;;;;;;;10.63;7.75;;;;;;;39.89;33.49;100162.61;1849529;76;20921;-75
2021/07/18 07:44:36;;;;;;;11.53;8.68;;;;;;;39.93;33.28;100160.90;1849402;77;21545;-76
2021/07/18 07:47:04;;;;;;;12.43;9.10;;;;;;;39.97;33.46;100159.72;1849243;77;20850;-76
2021/07/18 07:49:31;;;;;;;13.70;8.83;;;;;;;40.05;33.40;100163.73;1849235;77;21336;-78
2021/07/18 07:52:01;;;;;;;10.45;8.70;;;;;;;40.16;33.28;100168.73;1849090;77;21096;-77
2021/07/18 07:54:28;;;;;;;13.98;8.33;;;;;;;40.32;33.14;100167.13;1849526;77;20945;-77
2021/07/18 07:56:58;;;;;;;12.15;8.88;;;;;;;40.46;33.30;100174.83;1848939;77;21339;-77
2021/07/18 07:59:25;;;;;;;14.18;8.13;;;;;;;40.54;32.60;100167.83;1849566;77;20962;-77
2021/07/18 08:01:53;;;;;;;11.97;8.65;;;;;;;40.64;32.52;100163.48;1849050;77;20862;-77
2021/07/18 08:04:20;;;;;;;12.68;8.65;;;;;;;40.81;32.36;100160.98;1849825;77;21510;-78
2021/07/18 08:06:48;;;;;;;10.13;7.70;;;;;;;40.92;31.94;100162.16;1849340;77;20952;-77
2021/07/18 08:09:16;;;;;;;11.05;7.83;;;;;;;40.95;31.32;100152.72;1849282;77;21469;-77
2021/07/18 08:11:44;;;;;;;11.25;7.95;;;;;;;41.00;31.84;100157.29;1848876;76;20854;-78
2021/07/18 08:14:12;;;;;;;7.95;7.22;;;;;;;41.05;31.65;100159.15;1850076;75;21336;-79
2021/07/18 08:16:41;;;;;;;9.50;7.78;;;;;;;40.99;31.62;100157.86;1859812;77;21184;-77
2021/07/18 08:19:08;;;;;;;13.60;7.83;;;;;;;40.90;31.49;100165.20;1859648;77;20883;-76
2021/07/18 08:21:36;;;;;;;12.82;7.65;;;;;;;40.85;30.87;100159.81;1859186;76;20974;-77
2021/07/18 08:24:04;;;;;;;11.90;8.40;;;;;;;40.95;30.97;100162.34;1859842;76;20926;-74
2021/07/18 08:26:32;;;;;;;9.60;7.47;;;;;;;41.11;30.87;100170.27;1859026;76;21508;-75
2021/07/18 08:28:59;;;;;;;14.20;7.67;;;;;;;41.20;30.68;100161.57;1859823;77;22143;-74
2021/07/18 08:31:30;;;;;;;11.30;7.70;;;;;;;41.26;30.11;100169.17;1860109;77;20990;-74
2021/07/18 08:34:00;;;;;;;15.30;7.92;;;;;;;41.23;30.21;100162.92;1858495;76;20859;-75
2021/07/18 08:36:29;;;;;;;9.90;7.42;;;;;;;41.14;30.23;100166.39;1859946;76;20899;-76
2021/07/18 08:38:56;;;;;;;9.18;7.20;;;;;;;41.09;30.58;100162.35;1859468;77;21042;-78
2021/07/18 08:41:22;;;;;;;10.70;7.53;;;;;;;41.00;30.43;100163.63;1860616;77;21472;-75
2021/07/18 08:43:53;;;;;;;7.55;6.95;;;;;;;40.97;30.36;100162.05;1859388;77;20970;-76
2021/07/18 08:46:22;;;;;;;13.22;8.40;;;;;;;40.98;30.20;100163.13;1859508;77;20868;-75
2021/07/18 08:48:57;;;;;;;10.40;7.83;;;;;;;40.96;30.49;100153.55;1859709;77;20860;-77
2021/07/18 08:51:24;;;;;;;8.25;7.30;;;;;;;41.10;29.94;100150.77;1860361;77;20872;-77
2021/07/18 08:53:54;;;;;;;8.35;7.10;;;;;;;41.23;29.51;100150.53;1860031;77;21305;-75
2021/07/18 08:56:20;;;;;;;12.30;6.83;;;;;;;41.30;29.51;100149.55;1860253;76;20894;-76
2021/07/18 08:58:47;;;;;;;7.95;7.05;;;;;;;41.39;28.92;100150.43;1860326;77;20900;-77
2021/07/18 09:01:14;;;;;;;15.45;7.20;;;;;;;41.46;28.57;100143.92;1859510;76;20879;-76
2021/07/18 09:03:41;;;;;;;9.05;5.75;;;;;;;41.54;28.74;100139.63;1859876;77;20868;-76
2021/07/18 09:06:09;;;;;;;13.60;6.83;;;;;;;41.46;29.01;100134.29;1860185;77;21092;-76
2021/07/18 09:08:45;;;;;;;8.57;6.07;;;;;;;41.42;28.86;100136.03;1859331;77;20969;-77
2021/07/18 09:11:25;;;;;;;10.63;5.78;;;;;;;41.25;28.92;100127.65;1860118;77;20966;-75
2021/07/18 09:14:02;;;;;;;6.75;6.10;;;;;;;40.90;29.28;100130.83;1859300;77;20872;-76
2021/07/18 09:16:40;;;;;;;6.55;5.22;;;;;;;40.78;29.69;100136.86;1859344;77;20891;-75
2021/07/18 09:19:25;;;;;;;12.63;6.53;;;;;;;40.87;29.67;100136.11;1859495;77;21137;-76
2021/07/18 09:22:18;;;;;;;7.90;5.47;;;;;;;40.90;29.13;100137.70;1860200;77;20841;-75
2021/07/18 09:24:54;;;;;;;7.08;5.45;;;;;;;40.73;29.94;100134.19;1859586;77;20825;-75
2021/07/18 09:27:26;;;;;;;7.65;5.92;;;;;;;40.77;30.00;100130.27;1859820;77;20887;-76
2021/07/18 09:30:06;;;;;;;6.00;5.25;;;;;;;40.74;29.97;100126.20;1859966;77;20931;-75
2021/07/18 09:32:37;;;;;;;6.67;5.87;;;;;;;40.79;29.27;100128.84;1860407;77;20824;-76
2021/07/18 09:35:11;;;;;;;9.20;5.50;;;;;;;40.86;29.48;100126.25;1859759;77;21053;-76
2021/07/18 09:37:47;;;;;;;7.15;5.40;;;;;;;41.00;29.07;100128.41;1854392;77;20915;-75
2021/07/18 09:40:22;;;;;;;10.32;5.80;;;;;;;41.11;29.93;100130.38;1847798;76;20914;-76
2021/07/18 09:43:00;;;;;;;6.30;4.85;;;;;;;41.20;28.53;100125.80;1859935;77;21447;-77
2021/07/18 09:45:32;;;;;;;10.23;5.33;;;;;;;41.02;27.50;100128.91;1858547;76;21361;-76
2021/07/18 09:48:03;;;;;;;13.35;5.03;;;;;;;40.70;27.30;100132.06;1859098;77;21511;-76
2021/07/18 09:50:47;;;;;;;9.60;5.42;;;;;;;40.49;27.99;100121.17;1859604;77;21431;-75
2021/07/18 09:53:16;;;;;;;9.35;5.22;;;;;;;40.06;28.54;100130.45;1859766;77;20875;-76
2021/07/18 09:56:17;;;;;;;8.73;5.72;;;;;;;39.61;28.07;100129.26;1859999;77;20916;-75
2021/07/18 09:58:55;;;;;;;6.15;5.55;;;;;;;39.16;28.96;100132.34;1860150;77;21104;-76
2021/07/18 10:01:25;;;;;;;7.45;6.03;;;;;;;38.68;30.66;100133.17;1859193;77;21057;-76
2021/07/18 10:03:57;;;;;;;6.90;6.20;;;;;;;38.28;32.18;100137.94;1860201;77;20914;-79
2021/07/18 10:06:26;;;;;;;8.13;5.53;;;;;;;37.89;33.81;100138.82;1859844;77;20907;-75
2021/07/18 10:08:57;;;;;;;9.15;6.00;;;;;;;37.50;34.83;100139.61;1859915;77;20836;-66
2021/07/18 10:11:27;;;;;;;11.12;8.48;;;;;;;37.11;35.97;100134.11;1860012;77;21155;-66
2021/07/18 10:13:55;;;;;;;9.08;7.83;;;;;;;36.80;36.61;100134.72;1859992;77;21410;-67
2021/07/18 10:16:25;;;;;;;10.15;6.58;;;;;;;36.72;37.04;100130.11;1859733;76;20856;-67
2021/07/18 10:18:55;;;;;;;10.07;6.37;;;;;;;36.78;36.27;100130.92;1860239;77;21394;-68
2021/07/18 10:21:25;;;;;;;14.13;6.50;;;;;;;36.97;35.70;100123.46;1860005;77;20954;-67
2021/07/18 10:23:55;;;;;;;11.22;6.20;;;;;;;37.15;35.63;100124.22;1859860;76;21609;-67
2021/07/18 10:26:27;;;;;;;7.08;5.80;;;;;;;37.34;35.35;100119.73;1859992;76;20832;-66
2021/07/18 10:28:56;;;;;;;10.23;6.00;;;;;;;37.63;33.99;100128.61;1860013;77;20876;-66
2021/07/18 10:31:46;;;;;;;7.05;6.10;;;;;;;37.70;34.21;100125.55;1859776;77;20855;-68
2021/07/18 10:34:13;;;;;;;7.72;5.65;;;;;;;37.92;33.46;100133.33;1860201;77;20844;-68
2021/07/18 10:36:42;;;;;;;6.85;5.55;;;;;;;38.17;31.82;100123.28;1860199;77;21645;-68
2021/07/18 10:39:35;;;;;;;7.75;5.97;;;;;;;38.34;32.06;100125.84;1859407;77;20931;-68
2021/07/18 10:42:05;;;;;;;6.53;5.92;;;;;;;38.59;31.17;100121.22;1860301;76;20883;-67
2021/07/18 10:44:48;;;;;;;11.90;6.03;;;;;;;38.84;30.45;100120.66;1860140;77;20899;-68
2021/07/18 10:47:15;;;;;;;12.43;5.92;;;;;;;38.94;31.00;100123.31;1860270;77;20954;-67
2021/07/18 10:49:56;;;;;;;12.15;6.20;;;;;;;38.98;31.97;100117.50;1857966;77;20911;-67
2021/07/18 10:52:31;;;;;;;10.58;6.58;;;;;;;39.04;33.69;100114.13;1859940;77;21411;-67
2021/07/18 10:55:00;;;;;;;8.38;5.85;;;;;;;38.96;33.37;100119.72;1860475;76;21372;-67
2021/07/18 10:57:32;;;;;;;9.33;5.83;;;;;;;38.88;33.45;100117.03;1859995;77;20989;-67
2021/07/18 11:00:23;;;;;;;7.08;6.30;;;;;;;38.88;33.12;100121.14;1860075;77;20950;-66
2021/07/18 11:03:13;;;;;;;7.28;5.62;;;;;;;38.89;32.92;100108.27;1860386;77;21061;-67
2021/07/18 11:05:48;;;;;;;7.67;6.40;;;;;;;38.99;32.64;100104.59;1859997;76;20950;-68
2021/07/18 11:08:17;;;;;;;8.20;5.90;;;;;;;39.07;32.36;100095.72;1860026;77;20955;-68
2021/07/18 11:10:53;;;;;;;11.18;6.12;;;;;;;39.03;31.40;100098.23;1860487;77;20934;-66
2021/07/18 11:13:22;;;;;;;5.30;4.80;;;;;;;38.64;32.09;100098.41;1860039;77;20922;-67
2021/07/18 11:15:49;;;;;;;6.60;4.90;;;;;;;38.14;32.43;100095.92;1857212;77;21135;-67
2021/07/18 11:18:25;;;;;;;6.80;4.83;;;;;;;37.68;32.26;100096.28;1849157;77;21000;-66
2021/07/18 11:20:55;;;;;;;7.58;4.80;;;;;;;37.41;32.47;100099.46;1848866;77;20874;-67
2021/07/18 11:23:38;;;;;;;8.58;4.47;;;;;;;37.07;32.37;100107.83;1849402;77;21399;-66
2021/07/18 11:26:11;;;;;;;8.28;4.78;;;;;;;36.80;31.99;100132.83;1849191;77;20842;-65